createdAt,value
2024-02-04T00:00:20.902Z,91.38
2024-02-04T00:02:47.842Z,90.07
2024-02-04T00:05:14.838Z,90.30
2024-02-04T00:07:41.907Z,88.40
2024-02-04T00:10:09.066Z,89.03
2024-02-04T00:12:36.091Z,93.18
2024-02-04T00:15:05.551Z,95.10
2024-02-04T00:17:34.345Z,94.95
2024-02-04T00:20:02.295Z,90.90
2024-02-04T00:22:29.303Z,87.68
2024-02-04T00:24:57.415Z,89.00
2024-02-04T00:27:24.486Z,92.10
2024-02-04T00:29:51.701Z,88.75
2024-02-04T00:32:18.683Z,87.35
2024-02-04T00:34:45.856Z,90.03
2024-02-04T00:37:13.148Z,96.95
2024-02-04T00:39:40.085Z,92.90
2024-02-04T00:42:06.989Z,91.65
2024-02-04T00:44:33.944Z,88.55
2024-02-04T00:47:00.863Z,88.45
2024-02-04T00:49:28.243Z,86.07
2024-02-04T00:51:55.737Z,91.90
2024-02-04T00:54:22.696Z,90.60
2024-02-04T00:56:49.657Z,89.25
2024-02-04T00:59:16.665Z,90.30
2024-02-04T01:01:44.256Z,86.93
2024-02-04T01:04:11.338Z,89.25
2024-02-04T01:06:47.967Z,88.35
2024-02-04T01:09:23.728Z,88.55
2024-02-04T01:11:50.642Z,86.70
2024-02-04T01:14:17.491Z,86.53
2024-02-04T01:16:44.289Z,86.60
2024-02-04T01:19:11.222Z,84.95
2024-02-04T01:21:38.147Z,84.88
2024-02-04T01:24:05.412Z,84.20
2024-02-04T01:26:32.268Z,82.13
2024-02-04T01:28:59.201Z,78.15
2024-02-04T01:31:26.104Z,86.32
2024-02-04T01:33:53.188Z,80.28
2024-02-04T01:36:20.214Z,81.18
2024-02-04T01:38:47.204Z,74.65
2024-02-04T01:41:14.142Z,83.03
2024-02-04T01:43:41.070Z,79.05
2024-02-04T01:46:09.300Z,85.95
2024-02-04T01:48:37.436Z,93.82
2024-02-04T01:51:05.768Z,79.35
2024-02-04T01:53:35.238Z,85.68
2024-02-04T01:56:02.998Z,81.82
2024-02-04T01:58:30.154Z,89.10
2024-02-04T02:00:57.268Z,83.80
2024-02-04T02:03:25.738Z,87.45
2024-02-04T02:05:53.386Z,89.85
2024-02-04T02:08:20.457Z,81.00
2024-02-04T02:10:49.628Z,84.18
2024-02-04T02:13:26.078Z,78.78
2024-02-04T02:15:57.768Z,71.28
2024-02-04T02:18:44.070Z,92.47
2024-02-04T02:21:20.096Z,78.32
2024-02-04T02:24:15.279Z,86.07
2024-02-04T02:26:43.073Z,89.22
2024-02-04T02:29:10.120Z,92.93
2024-02-04T02:31:47.284Z,95.53
2024-02-04T02:34:30.292Z,97.28
2024-02-04T02:37:12.421Z,89.55
2024-02-04T02:39:50.946Z,90.63
2024-02-04T02:42:18.634Z,85.45
2024-02-04T02:44:47.334Z,81.05
2024-02-04T02:47:16.608Z,85.03
2024-02-04T02:49:43.677Z,80.50
2024-02-04T02:52:10.679Z,85.25
2024-02-04T02:54:37.595Z,83.47
2024-02-04T02:57:04.637Z,84.07
2024-02-04T02:59:31.968Z,81.10
2024-02-04T03:01:58.820Z,83.97
2024-02-04T03:04:25.857Z,82.95
2024-02-04T03:06:52.920Z,82.53
2024-02-04T03:09:19.751Z,90.35
2024-02-04T03:11:47.568Z,89.40
2024-02-04T03:14:17.772Z,86.80
2024-02-04T03:16:46.350Z,74.00
2024-02-04T03:19:13.707Z,75.85
2024-02-04T03:21:40.923Z,81.30
2024-02-04T03:24:08.599Z,86.85
2024-02-04T03:26:35.560Z,95.40
2024-02-04T03:29:05.726Z,86.85
2024-02-04T03:31:33.340Z,84.53
2024-02-04T03:34:00.648Z,95.97
2024-02-04T03:36:28.738Z,93.05
2024-02-04T03:38:55.775Z,96.95
2024-02-04T03:41:22.739Z,98.53
2024-02-04T03:43:50.125Z,89.85
2024-02-04T03:46:17.627Z,90.38
2024-02-04T03:48:44.982Z,87.72
2024-02-04T03:51:19.487Z,90.78
2024-02-04T03:53:48.620Z,95.05
2024-02-04T03:56:15.522Z,87.40
2024-02-04T03:58:42.495Z,92.97
2024-02-04T04:01:13.967Z,78.97
2024-02-04T04:03:44.645Z,82.17
2024-02-04T04:06:12.271Z,87.90
2024-02-04T04:08:39.522Z,86.38
2024-02-04T04:11:08.387Z,90.78
2024-02-04T04:13:36.383Z,87.82
2024-02-04T04:16:05.102Z,92.40
2024-02-04T04:18:32.510Z,97.10
2024-02-04T04:20:59.464Z,94.05
2024-02-04T04:23:26.454Z,92.30
2024-02-04T04:25:53.450Z,94.60
2024-02-04T04:28:20.418Z,96.13
2024-02-04T04:30:47.420Z,94.97
2024-02-04T04:33:14.576Z,98.47
2024-02-04T04:35:41.541Z,99.80
2024-02-04T04:38:08.500Z,102.18
2024-02-04T04:40:35.447Z,101.40
2024-02-04T04:43:02.462Z,99.43
2024-02-04T04:45:29.570Z,92.72
2024-02-04T04:47:56.567Z,94.47
2024-02-04T04:50:23.640Z,100.32
2024-02-04T04:52:50.905Z,94.30
2024-02-04T04:55:17.904Z,88.88
2024-02-04T04:57:44.834Z,95.68
2024-02-04T05:00:13.977Z,81.15
2024-02-04T05:02:45.066Z,91.07
2024-02-04T05:05:13.163Z,92.57
2024-02-04T05:07:40.847Z,96.55
2024-02-04T05:10:08.778Z,93.15
2024-02-04T05:12:37.202Z,102.88
2024-02-04T05:15:05.412Z,93.40
2024-02-04T05:17:33.013Z,93.18
2024-02-04T05:19:59.969Z,92.10
2024-02-04T05:22:26.922Z,99.97
2024-02-04T05:24:53.962Z,99.18
2024-02-04T05:27:20.857Z,98.70
2024-02-04T05:29:47.741Z,95.22
2024-02-04T05:32:14.716Z,105.60
2024-02-04T05:34:41.839Z,100.35
2024-02-04T05:37:08.920Z,99.00
2024-02-04T05:39:35.834Z,88.07
2024-02-04T05:42:02.765Z,96.00
2024-02-04T05:44:29.650Z,92.50
2024-02-04T05:46:56.885Z,93.40
2024-02-04T05:49:24.003Z,95.13
2024-02-04T05:51:51.047Z,95.80
2024-02-04T05:54:17.924Z,100.95
2024-02-04T05:56:45.167Z,96.25
2024-02-04T05:59:12.012Z,88.35
2024-02-04T06:01:38.913Z,87.88
2024-02-04T06:04:05.949Z,88.32
2024-02-04T06:06:33.203Z,95.97
2024-02-04T06:09:00.300Z,97.65
2024-02-04T06:11:27.334Z,96.90
2024-02-04T06:13:54.953Z,89.43
2024-02-04T06:16:21.759Z,101.95
2024-02-04T06:18:48.799Z,103.30
2024-02-04T06:21:15.748Z,97.43
2024-02-04T06:23:42.621Z,96.47
2024-02-04T06:26:09.471Z,95.90
2024-02-04T06:28:36.939Z,90.68
2024-02-04T06:31:04.112Z,92.10
2024-02-04T06:33:31.307Z,93.72
2024-02-04T06:35:58.293Z,94.18
2024-02-04T06:38:25.186Z,94.57
2024-02-04T06:40:52.233Z,95.50
2024-02-04T06:43:19.313Z,91.90
2024-02-04T06:45:46.232Z,90.72
2024-02-04T06:48:14.327Z,91.00
2024-02-04T06:50:41.396Z,96.15
2024-02-04T06:53:08.256Z,100.38
2024-02-04T06:55:35.089Z,110.50
2024-02-04T06:58:02.030Z,100.72
2024-02-04T07:00:29.067Z,105.90
2024-02-04T07:02:56.196Z,99.85
2024-02-04T07:05:23.304Z,93.95
2024-02-04T07:07:53.624Z,94.32
2024-02-04T07:10:20.753Z,89.70
2024-02-04T07:12:47.646Z,104.20
2024-02-04T07:15:14.546Z,99.90
2024-02-04T07:17:41.458Z,99.00
2024-02-04T07:20:08.699Z,99.68
2024-02-04T07:22:38.033Z,105.68
2024-02-04T07:25:05.924Z,104.13
2024-02-04T07:27:33.164Z,104.25
2024-02-04T07:30:00.225Z,106.15
2024-02-04T07:32:27.245Z,100.95
2024-02-04T07:34:54.243Z,100.32
2024-02-04T07:37:21.281Z,97.38
2024-02-04T07:39:48.480Z,102.72
2024-02-04T07:42:15.394Z,93.45
2024-02-04T07:44:42.298Z,102.70
2024-02-04T07:47:09.278Z,100.32
2024-02-04T07:49:36.363Z,97.40
2024-02-04T07:52:03.388Z,96.68
2024-02-04T07:54:30.383Z,94.07
2024-02-04T07:56:57.465Z,99.30
2024-02-04T07:59:24.355Z,103.47
2024-02-04T08:01:51.331Z,105.55
2024-02-04T08:04:18.251Z,101.88
2024-02-04T08:06:45.346Z,103.18
2024-02-04T08:09:12.918Z,110.28
2024-02-04T08:11:39.830Z,110.18
2024-02-04T08:14:06.787Z,108.45
2024-02-04T08:16:33.644Z,114.93
2024-02-04T08:19:00.604Z,113.15
2024-02-04T08:21:27.803Z,114.30
2024-02-04T08:23:55.206Z,114.63
2024-02-04T08:26:22.098Z,107.55
2024-02-04T08:28:49.005Z,106.80
2024-02-04T08:31:16.051Z,112.85
2024-02-04T08:33:43.337Z,112.30
2024-02-04T08:36:11.740Z,110.93
2024-02-04T08:38:38.783Z,108.85
2024-02-04T08:41:05.824Z,109.63
2024-02-04T08:43:32.823Z,109.82
2024-02-04T08:46:05.536Z,104.00
2024-02-04T08:48:38.291Z,108.28
2024-02-04T08:51:05.626Z,103.55
2024-02-04T08:53:32.503Z,104.70
2024-02-04T08:55:59.457Z,103.90
2024-02-04T08:58:26.475Z,104.53
2024-02-04T09:00:53.410Z,103.28
2024-02-04T09:03:20.372Z,107.22
2024-02-04T09:05:47.462Z,108.57
2024-02-04T09:08:14.520Z,105.03
2024-02-04T09:10:41.488Z,108.72
2024-02-04T09:13:08.592Z,102.57
2024-02-04T09:15:35.672Z,106.40
2024-02-04T09:18:02.806Z,107.50
2024-02-04T09:20:30.464Z,106.68
2024-02-04T09:22:57.683Z,106.22
2024-02-04T09:25:26.257Z,104.85
2024-02-04T09:27:53.316Z,104.25
2024-02-04T09:30:20.432Z,103.80
2024-02-04T09:32:48.337Z,107.15
2024-02-04T09:35:15.811Z,104.85
2024-02-04T09:37:43.641Z,107.95
2024-02-04T09:40:11.563Z,107.22
2024-02-04T09:42:38.750Z,110.22
2024-02-04T09:45:06.472Z,111.60
2024-02-04T09:47:36.311Z,109.45
2024-02-04T09:50:03.621Z,121.07
2024-02-04T09:52:32.687Z,122.13
2024-02-04T09:55:07.159Z,123.72
2024-02-04T09:57:36.239Z,123.65
2024-02-04T10:00:06.901Z,121.78
2024-02-04T10:02:39.154Z,126.10
2024-02-04T10:05:07.004Z,133.75
2024-02-04T10:07:34.353Z,132.45
2024-02-04T10:10:02.272Z,132.50
2024-02-04T10:12:29.390Z,132.23
2024-02-04T10:14:56.289Z,130.48
2024-02-04T10:17:23.614Z,130.57
2024-02-04T10:19:50.698Z,132.50
2024-02-04T10:22:18.627Z,133.55
2024-02-04T10:24:48.151Z,131.57
2024-02-04T10:27:26.053Z,136.52
2024-02-04T10:29:57.102Z,129.50
2024-02-04T10:32:25.795Z,130.18
2024-02-04T10:34:53.491Z,131.18
2024-02-04T10:37:20.662Z,129.48
2024-02-04T10:39:47.595Z,125.78
2024-02-04T10:42:16.261Z,124.25
2024-02-04T10:44:46.676Z,123.63
2024-02-04T10:47:18.674Z,123.88
2024-02-04T10:49:52.354Z,124.82
2024-02-04T10:52:19.720Z,119.45
2024-02-04T10:54:47.780Z,122.75
2024-02-04T10:57:20.098Z,121.80
2024-02-04T10:59:49.691Z,127.38
2024-02-04T11:02:17.393Z,120.22
2024-02-04T11:04:44.998Z,122.18
2024-02-04T11:07:13.509Z,125.05
2024-02-04T11:09:41.489Z,119.65
2024-02-04T11:12:13.916Z,119.85
2024-02-04T11:14:42.685Z,119.30
2024-02-04T11:17:27.318Z,124.57
2024-02-04T11:20:31.543Z,126.40
2024-02-04T11:23:37.079Z,135.13
2024-02-04T11:26:06.007Z,128.48
2024-02-04T11:28:34.201Z,130.55
2024-02-04T11:31:01.587Z,128.20
2024-02-04T11:33:30.271Z,129.60
2024-02-04T11:36:19.291Z,130.15
2024-02-04T11:38:50.101Z,134.23
2024-02-04T11:41:25.471Z,137.25
2024-02-04T11:44:01.263Z,138.40
2024-02-04T11:46:34.417Z,140.43
2024-02-04T11:49:02.008Z,140.88
2024-02-04T11:51:29.285Z,145.20
2024-02-04T11:53:57.279Z,144.68
2024-02-04T11:56:25.826Z,144.82
2024-02-04T11:58:53.573Z,147.32
2024-02-04T12:01:24.498Z,150.20
2024-02-04T12:03:53.188Z,151.38
2024-02-04T12:06:21.071Z,150.65
2024-02-04T12:08:48.566Z,147.32
2024-02-04T12:11:16.226Z,145.00
2024-02-04T12:13:44.384Z,152.75
2024-02-04T12:16:11.515Z,144.30
2024-02-04T12:18:51.942Z,146.23
2024-02-04T12:21:19.076Z,149.57
2024-02-04T12:23:46.047Z,148.80
2024-02-04T12:26:15.006Z,145.45
2024-02-04T12:28:42.039Z,146.15
2024-02-04T12:31:09.730Z,145.20
2024-02-04T12:33:39.176Z,148.35
2024-02-04T12:36:06.750Z,144.52
2024-02-04T12:38:34.382Z,136.55
2024-02-04T12:41:04.342Z,135.05
2024-02-04T12:43:31.226Z,134.93
2024-02-04T12:46:00.351Z,144.93
2024-02-04T12:48:29.638Z,142.75
2024-02-04T12:50:56.543Z,144.70
2024-02-04T12:53:23.386Z,147.32
2024-02-04T12:55:59.250Z,146.55
2024-02-04T12:58:26.399Z,143.25
2024-02-04T13:01:02.485Z,143.23
2024-02-04T13:03:29.654Z,147.00
2024-02-04T13:06:00.293Z,147.10
2024-02-04T13:08:30.421Z,147.07
2024-02-04T13:10:58.491Z,148.38
2024-02-04T13:13:28.352Z,151.85
2024-02-04T13:15:55.516Z,154.73
2024-02-04T13:18:22.492Z,146.57
2024-02-04T13:20:49.920Z,145.63
2024-02-04T13:23:16.949Z,150.25
2024-02-04T13:25:45.483Z,146.30
2024-02-04T13:28:58.369Z,151.73
2024-02-04T13:31:25.561Z,152.70
2024-02-04T13:33:52.526Z,153.10
2024-02-04T13:36:19.470Z,155.10
2024-02-04T13:38:48.475Z,151.63
2024-02-04T13:41:15.601Z,154.63
2024-02-04T13:43:44.616Z,153.77
2024-02-04T13:46:11.577Z,151.68
2024-02-04T13:48:38.524Z,155.38
2024-02-04T13:51:06.472Z,154.50
2024-02-04T13:53:35.328Z,156.80
2024-02-04T13:56:02.899Z,160.27
2024-02-04T13:58:29.752Z,153.68
2024-02-04T14:00:56.699Z,154.75
2024-02-04T14:03:23.572Z,152.13
2024-02-04T14:05:51.250Z,154.85
2024-02-04T14:08:18.352Z,155.07
2024-02-04T14:10:45.224Z,151.15
2024-02-04T14:13:12.910Z,154.73
2024-02-04T14:15:40.116Z,159.82
2024-02-04T14:18:07.148Z,155.50
2024-02-04T14:20:34.053Z,156.43
2024-02-04T14:23:00.913Z,156.38
2024-02-04T14:25:30.638Z,157.25
2024-02-04T14:27:58.178Z,156.63
2024-02-04T14:30:25.081Z,157.70
2024-02-04T14:32:52.031Z,157.68
2024-02-04T14:35:18.955Z,157.02
2024-02-04T14:37:46.008Z,160.27
2024-02-04T14:40:13.480Z,158.73
2024-02-04T14:42:42.857Z,157.07
2024-02-04T14:45:11.982Z,161.52
2024-02-04T14:47:39.717Z,159.68
2024-02-04T14:50:07.187Z,158.57
2024-02-04T14:52:34.090Z,160.95
2024-02-04T14:55:00.986Z,161.85
2024-02-04T14:57:28.231Z,155.93
2024-02-04T14:59:55.117Z,163.57
2024-02-04T15:02:22.173Z,161.60
2024-02-04T15:04:49.110Z,164.07
2024-02-04T15:07:16.163Z,166.32
2024-02-04T15:09:43.218Z,168.18
2024-02-04T15:12:10.826Z,166.05
2024-02-04T15:14:38.752Z,167.60
2024-02-04T15:17:06.048Z,168.95
2024-02-04T15:22:04.769Z,171.20
2024-02-04T15:24:31.990Z,171.88
2024-02-04T15:27:06.134Z,171.77
2024-02-04T15:29:37.381Z,170.23
2024-02-04T15:32:05.592Z,172.63
2024-02-04T15:34:33.821Z,174.93
2024-02-04T15:37:01.631Z,178.77
2024-02-04T15:39:28.773Z,174.45
2024-02-04T15:41:55.739Z,173.55
2024-02-04T15:44:25.724Z,175.70
2024-02-04T15:46:55.169Z,173.98
2024-02-04T15:49:23.609Z,175.15
2024-02-04T15:51:51.042Z,173.63
2024-02-04T15:54:18.457Z,177.73
2024-02-04T15:56:52.144Z,180.00
2024-02-04T15:59:22.386Z,181.95
2024-02-04T16:01:50.029Z,186.07
2024-02-04T16:04:18.833Z,179.80
2024-02-04T16:06:46.581Z,187.40
2024-02-04T16:09:14.528Z,185.05
2024-02-04T16:12:00.413Z,183.00
2024-02-04T16:14:29.270Z,179.68
2024-02-04T16:17:06.414Z,179.27
2024-02-04T16:19:33.786Z,178.40
2024-02-04T16:22:00.854Z,181.85
2024-02-04T16:24:27.913Z,177.52
2024-02-04T16:26:55.187Z,179.82
2024-02-04T16:29:28.548Z,179.27
2024-02-04T16:31:56.184Z,178.23
2024-02-04T16:34:23.349Z,177.00
2024-02-04T16:36:50.891Z,179.93
2024-02-04T16:39:18.079Z,181.43
2024-02-04T16:41:45.701Z,178.45
2024-02-04T16:44:14.965Z,177.18
2024-02-04T16:46:42.330Z,182.93
2024-02-04T16:49:13.615Z,179.20
2024-02-04T16:51:43.814Z,179.18
2024-02-04T16:54:10.993Z,178.68
2024-02-04T16:56:40.950Z,181.93
2024-02-04T16:59:09.752Z,180.10
2024-02-04T17:01:36.782Z,178.93
2024-02-04T17:04:05.548Z,183.50
2024-02-04T17:06:33.151Z,179.50
2024-02-04T17:09:02.922Z,175.77
2024-02-04T17:11:30.734Z,181.88
2024-02-04T17:13:58.174Z,185.43
2024-02-04T17:16:43.935Z,179.50
2024-02-04T17:19:15.817Z,182.43
2024-02-04T17:21:46.992Z,181.05
2024-02-04T17:24:26.565Z,180.38
2024-02-04T17:26:56.354Z,180.82
2024-02-04T17:29:23.956Z,181.05
2024-02-04T17:31:51.460Z,184.27
2024-02-04T17:34:18.896Z,176.35
2024-02-04T17:36:45.842Z,179.82
2024-02-04T17:39:13.195Z,184.40
2024-02-04T17:41:41.054Z,180.93
2024-02-04T17:44:08.005Z,184.88
2024-02-04T17:46:34.916Z,180.90
2024-02-04T17:49:03.509Z,180.60
2024-02-04T17:51:32.901Z,182.98
2024-02-04T17:54:00.817Z,181.73
2024-02-04T17:56:27.755Z,179.00
2024-02-04T17:58:54.557Z,185.18
2024-02-04T18:01:22.369Z,193.65
2024-02-04T18:03:50.820Z,191.50
2024-02-04T18:06:17.840Z,196.10
2024-02-04T18:08:44.742Z,185.68
2024-02-04T18:11:26.465Z,183.40
2024-02-04T18:13:54.825Z,178.27
2024-02-04T18:16:24.402Z,179.55
2024-02-04T18:18:51.900Z,175.90
2024-02-04T18:21:20.274Z,175.73
2024-02-04T18:23:47.667Z,177.80
2024-02-04T18:26:24.211Z,182.68
2024-02-04T18:28:52.105Z,179.60
2024-02-04T18:31:19.229Z,173.68
2024-02-04T18:33:48.560Z,179.55
2024-02-04T18:36:17.199Z,180.43
2024-02-04T18:38:45.129Z,181.05
2024-02-04T18:41:12.149Z,181.48
2024-02-04T18:43:39.173Z,182.23
2024-02-04T18:46:06.526Z,183.18
2024-02-04T18:48:33.674Z,180.35
2024-02-04T18:51:02.386Z,185.15
2024-02-04T18:53:29.381Z,178.70
2024-02-04T18:55:59.134Z,183.73
2024-02-04T18:58:28.338Z,180.27
2024-02-04T19:00:56.157Z,173.55
2024-02-04T19:03:23.142Z,171.05
2024-02-04T19:05:50.696Z,162.98
2024-02-04T19:08:17.621Z,172.15
2024-02-04T19:10:44.675Z,170.60
2024-02-04T19:13:11.608Z,167.35
2024-02-04T19:15:38.640Z,171.93
2024-02-04T19:18:06.093Z,174.60
2024-02-04T19:20:32.949Z,168.90
2024-02-04T19:23:00.201Z,172.13
2024-02-04T19:25:27.321Z,181.75
2024-02-04T19:27:56.887Z,179.07
2024-02-04T19:30:25.784Z,184.25
2024-02-04T19:32:56.217Z,185.00
2024-02-04T19:35:28.909Z,180.35
2024-02-04T19:37:56.222Z,184.25
2024-02-04T19:40:23.815Z,173.90
2024-02-04T19:42:54.891Z,175.85
2024-02-04T19:45:22.061Z,175.85
2024-02-04T19:47:50.334Z,171.68
2024-02-04T19:50:17.677Z,169.10
2024-02-04T19:52:45.544Z,172.02
2024-02-04T19:55:13.613Z,177.70
2024-02-04T19:57:40.843Z,173.88
2024-02-04T20:00:09.776Z,169.02
2024-02-04T20:02:39.512Z,167.67
2024-02-04T20:05:06.998Z,170.38
2024-02-04T20:07:34.407Z,173.63
2024-02-04T20:10:01.371Z,174.07
2024-02-04T20:12:28.625Z,175.70
2024-02-04T20:14:55.668Z,176.48
2024-02-04T20:17:22.593Z,176.82
2024-02-04T20:19:49.522Z,178.35
2024-02-04T20:22:16.443Z,172.85
2024-02-04T20:24:43.434Z,171.07
2024-02-04T20:27:10.555Z,158.35
2024-02-04T20:29:39.924Z,159.20
2024-02-04T20:32:07.385Z,170.57
2024-02-04T20:34:34.383Z,173.48
2024-02-04T20:37:01.284Z,166.70
2024-02-04T20:39:29.080Z,165.15
2024-02-04T20:41:59.110Z,169.73
2024-02-04T20:44:26.345Z,176.25
2024-02-04T20:46:53.633Z,183.10
2024-02-04T20:49:20.557Z,175.68
2024-02-04T20:51:47.518Z,180.10
2024-02-04T20:54:14.426Z,171.07
2024-02-04T20:56:44.079Z,186.82
2024-02-04T20:59:14.945Z,183.43
2024-02-04T21:01:41.919Z,177.70
2024-02-04T21:04:09.083Z,183.90
2024-02-04T21:06:37.197Z,173.32
2024-02-04T21:09:05.742Z,169.18
2024-02-04T21:11:32.601Z,178.45
2024-02-04T21:13:59.614Z,162.50
2024-02-04T21:16:29.659Z,164.48
2024-02-04T21:18:56.677Z,169.88
2024-02-04T21:21:23.750Z,174.95
2024-02-04T21:23:50.578Z,164.65
2024-02-04T21:26:17.568Z,152.07
2024-02-04T21:28:45.254Z,149.32
2024-02-04T21:31:12.930Z,141.40
2024-02-04T21:33:39.989Z,151.45
2024-02-04T21:36:11.240Z,154.32
2024-02-04T21:38:40.859Z,150.88
2024-02-04T21:41:07.828Z,148.02
2024-02-04T21:43:34.921Z,151.02
2024-02-04T21:46:01.993Z,161.20
2024-02-04T21:48:29.153Z,140.48
2024-02-04T21:50:56.058Z,144.27
2024-02-04T21:53:23.013Z,158.93
2024-02-04T21:55:49.908Z,158.02
2024-02-04T21:58:17.988Z,178.45
2024-02-04T22:00:45.185Z,184.32
2024-02-04T22:03:12.242Z,162.32
2024-02-04T22:05:39.636Z,149.15
2024-02-04T22:08:07.422Z,150.98
2024-02-04T22:10:34.638Z,153.80
2024-02-04T22:13:01.905Z,160.55
2024-02-04T22:15:28.879Z,149.60
2024-02-04T22:17:58.163Z,163.70
2024-02-04T22:20:27.162Z,162.23
2024-02-04T22:22:53.977Z,182.95
2024-02-04T22:25:27.817Z,154.68
2024-02-04T22:27:58.729Z,162.88
2024-02-04T22:30:26.114Z,166.23
2024-02-04T22:32:53.092Z,162.80
2024-02-04T22:35:20.408Z,151.73
2024-02-04T22:37:47.355Z,146.50
2024-02-04T22:40:14.889Z,159.93
2024-02-04T22:42:42.313Z,151.10
2024-02-04T22:45:09.813Z,160.88
2024-02-04T22:47:36.676Z,169.75
2024-02-04T22:50:04.072Z,177.50
2024-02-04T22:52:32.449Z,170.15
2024-02-04T22:54:59.618Z,167.80
2024-02-04T22:57:27.580Z,181.27
2024-02-04T22:59:54.563Z,176.40
2024-02-04T23:02:21.669Z,175.35
2024-02-04T23:04:48.598Z,185.63
2024-02-04T23:07:15.700Z,188.18
2024-02-04T23:09:42.693Z,190.23
2024-02-04T23:12:10.380Z,205.25
2024-02-04T23:14:37.265Z,156.52
2024-02-04T23:17:05.321Z,153.82
2024-02-04T23:19:32.450Z,166.55
2024-02-04T23:21:59.520Z,154.90
2024-02-04T23:24:26.488Z,150.40
2024-02-04T23:26:53.452Z,184.68
2024-02-04T23:29:21.024Z,210.30
2024-02-04T23:31:48.214Z,202.27
2024-02-04T23:34:17.472Z,189.43
2024-02-04T23:36:44.759Z,179.82
2024-02-04T23:39:11.969Z,167.18
2024-02-04T23:41:38.916Z,166.32
2024-02-04T23:44:06.498Z,167.45
2024-02-04T23:46:33.390Z,173.70
2024-02-04T23:49:00.855Z,181.05
2024-02-04T23:51:28.259Z,180.20
2024-02-04T23:53:55.134Z,178.55
2024-02-04T23:56:22.036Z,184.65
2024-02-04T23:58:49.010Z,170.05
